TISX/STX METAR and TAF weather

Enter ICAO airport designator
Station Type Date Time Source
TISX METAR 2021/05/14 07:01 UTC NOAA

TISX 140701Z AUTO 05006KT 10SM SCT022 BKN055 BKN100 24/23 A3000 RMK AO2 RAE01 P0000 T02440228


Station Type Date Time Source
TISX Decoded METAR 2021/05/14 07:01 UTC NOAA

Christiansted, Henry E. Rohlsen Airport, Virgin Islands (TISX) 17-42N 064-48W 17M
May 14, 2021 - 03:01 AM EDT / 2021.05.14 0701 UTC
Wind: from the NE (050 degrees) at 7 MPH (6 KT):0
Visibility: 10 mile(s):0
Sky conditions: mostly cloudy
Precipitation last hour: A trace
Temperature: 75.9 F (24.4 C)
Dew Point: 73.0 F (22.8 C)
Relative Humidity: 90%
Pressure (altimeter): 30 in. Hg (1015 hPa)
ob: TISX 140701Z AUTO 05006KT 10SM SCT022 BKN055 BKN100 24/23 A3000 RMK AO2 RAE01 P0000 T02440228
cycle: 7

Station Type Date Time Source
TISX TAF 2021/05/14 06:11 UTC NOAA

TAF TISX 140601Z 1406/1506 05005KT P6SM VCSH SCT025 BKN040
FM141400 09012KT P6SM FEW030 SCT060
FM141700 11015G20KT P6SM VCSH SCT025 SCT050
FM142300 08008KT P6SM FEW025 SCT050

Example: see airport list